sensor_id;sensor_type;location;lat;lon;timestamp;pressure;altitude;pressure_sealevel;temperature;humidity
43878;BME280;29815;48.184;11.268;2023-04-25T00:01:32;94952.75;;;6.25;100.00
43878;BME280;29815;48.184;11.268;2023-04-25T00:04:07;94953.00;;;6.24;100.00
43878;BME280;29815;48.184;11.268;2023-04-25T00:06:37;94951.41;;;6.23;100.00
43878;BME280;29815;48.184;11.268;2023-04-25T00:09:07;94948.75;;;6.28;100.00
43878;BME280;29815;48.184;11.268;2023-04-25T00:11:38;94954.94;;;6.33;100.00
43878;BME280;29815;48.184;11.268;2023-04-25T00:14:07;94955.38;;;6.20;100.00
43878;BME280;29815;48.184;11.268;2023-04-25T00:16:38;94955.69;;;6.24;100.00
43878;BME280;29815;48.184;11.268;2023-04-25T00:19:11;94957.03;;;6.26;100.00
43878;BME280;29815;48.184;11.268;2023-04-25T00:21:41;94962.31;;;6.16;100.00
43878;BME280;29815;48.184;11.268;2023-04-25T00:24:14;94951.41;;;6.23;100.00
43878;BME280;29815;48.184;11.268;2023-04-25T00:26:43;94950.25;;;6.14;100.00
43878;BME280;29815;48.184;11.268;2023-04-25T00:29:13;94941.13;;;6.09;100.00
43878;BME280;29815;48.184;11.268;2023-04-25T00:31:43;94944.88;;;6.08;100.00
43878;BME280;29815;48.184;11.268;2023-04-25T00:34:14;94949.41;;;6.08;100.00
43878;BME280;29815;48.184;11.268;2023-04-25T00:36:43;94945.09;;;6.02;100.00
43878;BME280;29815;48.184;11.268;2023-04-25T00:39:13;94940.28;;;5.99;100.00
43878;BME280;29815;48.184;11.268;2023-04-25T00:41:43;94948.75;;;5.91;100.00
43878;BME280;29815;48.184;11.268;2023-04-25T00:44:15;94942.28;;;5.87;100.00
43878;BME280;29815;48.184;11.268;2023-04-25T00:46:47;94941.94;;;5.78;100.00
43878;BME280;29815;48.184;11.268;2023-04-25T00:49:19;94934.41;;;5.70;100.00
43878;BME280;29815;48.184;11.268;2023-04-25T00:51:48;94943.22;;;5.70;100.00
43878;BME280;29815;48.184;11.268;2023-04-25T00:54:18;94939.16;;;5.63;100.00
43878;BME280;29815;48.184;11.268;2023-04-25T00:56:48;94934.00;;;5.56;100.00
43878;BME280;29815;48.184;11.268;2023-04-25T00:59:18;94926.00;;;5.56;100.00
43878;BME280;29815;48.184;11.268;2023-04-25T01:01:48;94932.84;;;5.47;100.00
43878;BME280;29815;48.184;11.268;2023-04-25T01:04:19;94937.09;;;5.43;100.00
43878;BME280;29815;48.184;11.268;2023-04-25T01:06:50;94939.22;;;5.41;100.00
43878;BME280;29815;48.184;11.268;2023-04-25T01:09:21;94934.56;;;5.31;100.00
43878;BME280;29815;48.184;11.268;2023-04-25T01:11:51;94938.56;;;5.29;100.00
43878;BME280;29815;48.184;11.268;2023-04-25T01:14:21;94932.97;;;5.30;100.00
43878;BME280;29815;48.184;11.268;2023-04-25T01:16:53;94930.00;;;5.27;100.00
43878;BME280;29815;48.184;11.268;2023-04-25T01:19:24;94931.59;;;5.28;100.00
43878;BME280;29815;48.184;11.268;2023-04-25T01:21:56;94929.69;;;5.23;100.00
43878;BME280;29815;48.184;11.268;2023-04-25T01:24:25;94929.94;;;5.22;100.00
43878;BME280;29815;48.184;11.268;2023-04-25T01:26:57;94928.59;;;5.19;100.00
43878;BME280;29815;48.184;11.268;2023-04-25T01:29:29;94922.97;;;5.16;100.00
43878;BME280;29815;48.184;11.268;2023-04-25T01:31:59;94922.34;;;5.08;100.00
43878;BME280;29815;48.184;11.268;2023-04-25T01:34:29;94920.66;;;5.02;100.00
43878;BME280;29815;48.184;11.268;2023-04-25T01:37:00;94914.47;;;4.97;100.00
43878;BME280;29815;48.184;11.268;2023-04-25T01:39:30;94917.59;;;4.89;100.00
43878;BME280;29815;48.184;11.268;2023-04-25T01:42:00;94916.47;;;4.85;100.00
43878;BME280;29815;48.184;11.268;2023-04-25T01:44:31;94922.81;;;4.79;100.00
43878;BME280;29815;48.184;11.268;2023-04-25T01:47:01;94928.38;;;4.77;100.00
43878;BME280;29815;48.184;11.268;2023-04-25T01:49:31;94915.31;;;4.75;100.00
43878;BME280;29815;48.184;11.268;2023-04-25T01:52:03;94911.59;;;4.76;100.00
43878;BME280;29815;48.184;11.268;2023-04-25T01:54:32;94911.34;;;4.78;100.00
43878;BME280;29815;48.184;11.268;2023-04-25T01:57:02;94910.78;;;4.76;100.00
43878;BME280;29815;48.184;11.268;2023-04-25T01:59:34;94915.38;;;4.81;100.00
43878;BME280;29815;48.184;11.268;2023-04-25T02:02:17;94917.72;;;4.77;100.00
43878;BME280;29815;48.184;11.268;2023-04-25T02:04:47;94923.28;;;4.75;100.00
43878;BME280;29815;48.184;11.268;2023-04-25T02:07:18;94909.91;;;4.70;100.00
43878;BME280;29815;48.184;11.268;2023-04-25T02:09:53;94921.69;;;4.74;100.00
43878;BME280;29815;48.184;11.268;2023-04-25T02:12:24;94911.28;;;4.73;100.00
43878;BME280;29815;48.184;11.268;2023-04-25T02:15:20;94916.91;;;4.76;100.00
43878;BME280;29815;48.184;11.268;2023-04-25T02:17:53;94918.91;;;4.86;100.00
43878;BME280;29815;48.184;11.268;2023-04-25T02:20:24;94914.44;;;4.92;100.00
43878;BME280;29815;48.184;11.268;2023-04-25T02:22:55;94914.47;;;4.97;100.00
43878;BME280;29815;48.184;11.268;2023-04-25T02:25:25;94912.47;;;5.09;100.00
43878;BME280;29815;48.184;11.268;2023-04-25T02:27:55;94912.84;;;5.18;100.00
43878;BME280;29815;48.184;11.268;2023-04-25T02:30:24;94912.38;;;5.26;100.00
43878;BME280;29815;48.184;11.268;2023-04-25T02:32:54;94922.59;;;5.34;100.00
43878;BME280;29815;48.184;11.268;2023-04-25T02:35:24;94921.34;;;5.41;100.00
43878;BME280;29815;48.184;11.268;2023-04-25T02:37:56;94916.31;;;5.45;100.00
43878;BME280;29815;48.184;11.268;2023-04-25T02:40:26;94914.97;;;5.48;100.00
43878;BME280;29815;48.184;11.268;2023-04-25T02:42:55;94913.97;;;5.54;100.00
43878;BME280;29815;48.184;11.268;2023-04-25T02:45:27;94915.38;;;5.61;100.00
43878;BME280;29815;48.184;11.268;2023-04-25T02:47:56;94919.94;;;5.66;100.00
43878;BME280;29815;48.184;11.268;2023-04-25T02:50:26;94922.16;;;5.74;100.00
43878;BME280;29815;48.184;11.268;2023-04-25T02:52:57;94927.50;;;5.74;100.00
43878;BME280;29815;48.184;11.268;2023-04-25T02:55:33;94931.00;;;5.79;100.00
43878;BME280;29815;48.184;11.268;2023-04-25T02:58:05;94918.72;;;5.78;100.00
43878;BME280;29815;48.184;11.268;2023-04-25T03:00:54;94897.00;;;5.97;100.00
43878;BME280;29815;48.184;11.268;2023-04-25T03:03:24;94863.78;;;5.88;100.00
43878;BME280;29815;48.184;11.268;2023-04-25T03:05:54;94881.06;;;5.80;100.00
43878;BME280;29815;48.184;11.268;2023-04-25T03:08:29;94888.22;;;5.74;100.00
43878;BME280;29815;48.184;11.268;2023-04-25T03:11:01;94895.13;;;5.65;100.00
43878;BME280;29815;48.184;11.268;2023-04-25T03:13:31;94886.25;;;5.60;100.00
43878;BME280;29815;48.184;11.268;2023-04-25T03:16:00;94882.75;;;5.54;100.00
43878;BME280;29815;48.184;11.268;2023-04-25T03:18:30;94876.03;;;5.47;100.00
43878;BME280;29815;48.184;11.268;2023-04-25T03:21:00;94878.66;;;5.41;100.00
43878;BME280;29815;48.184;11.268;2023-04-25T03:23:33;94884.50;;;5.38;100.00
43878;BME280;29815;48.184;11.268;2023-04-25T03:26:02;94889.63;;;5.45;100.00
43878;BME280;29815;48.184;11.268;2023-04-25T03:28:32;94878.34;;;5.38;100.00
43878;BME280;29815;48.184;11.268;2023-04-25T03:31:01;94885.00;;;5.35;100.00
43878;BME280;29815;48.184;11.268;2023-04-25T03:33:31;94884.63;;;5.27;100.00
43878;BME280;29815;48.184;11.268;2023-04-25T03:36:00;94886.00;;;5.29;100.00
43878;BME280;29815;48.184;11.268;2023-04-25T03:38:30;94871.94;;;5.39;100.00
43878;BME280;29815;48.184;11.268;2023-04-25T03:41:02;94878.03;;;5.34;100.00
43878;BME280;29815;48.184;11.268;2023-04-25T03:43:39;94878.00;;;5.29;100.00
43878;BME280;29815;48.184;11.268;2023-04-25T03:46:12;94878.53;;;5.31;100.00
43878;BME280;29815;48.184;11.268;2023-04-25T03:48:42;94875.56;;;5.28;100.00
43878;BME280;29815;48.184;11.268;2023-04-25T03:51:18;94872.44;;;5.36;100.00
43878;BME280;29815;48.184;11.268;2023-04-25T03:53:49;94873.59;;;5.45;100.00
43878;BME280;29815;48.184;11.268;2023-04-25T03:56:20;94878.41;;;5.43;100.00
43878;BME280;29815;48.184;11.268;2023-04-25T03:58:57;94889.06;;;5.43;100.00
43878;BME280;29815;48.184;11.268;2023-04-25T04:01:29;94879.97;;;5.39;100.00
43878;BME280;29815;48.184;11.268;2023-04-25T04:03:58;94891.44;;;5.39;100.00
43878;BME280;29815;48.184;11.268;2023-04-25T04:06:29;94896.78;;;5.39;100.00
43878;BME280;29815;48.184;11.268;2023-04-25T04:09:09;94886.84;;;5.35;100.00
43878;BME280;29815;48.184;11.268;2023-04-25T04:11:43;94889.53;;;5.35;100.00
43878;BME280;29815;48.184;11.268;2023-04-25T04:14:12;94885.00;;;5.35;100.00
43878;BME280;29815;48.184;11.268;2023-04-25T04:16:45;94887.59;;;5.30;100.00
43878;BME280;29815;48.184;11.268;2023-04-25T04:19:15;94892.69;;;5.32;100.00
43878;BME280;29815;48.184;11.268;2023-04-25T04:21:51;94889.47;;;5.30;100.00
43878;BME280;29815;48.184;11.268;2023-04-25T04:24:22;94887.31;;;5.27;100.00
43878;BME280;29815;48.184;11.268;2023-04-25T04:27:03;94878.53;;;5.31;100.00
43878;BME280;29815;48.184;11.268;2023-04-25T04:29:37;94891.28;;;5.24;100.00
43878;BME280;29815;48.184;11.268;2023-04-25T04:32:21;94890.22;;;5.25;100.00
43878;BME280;29815;48.184;11.268;2023-04-25T04:34:51;94891.53;;;5.23;100.00
43878;BME280;29815;48.184;11.268;2023-04-25T04:37:24;94891.84;;;5.26;100.00
43878;BME280;29815;48.184;11.268;2023-04-25T04:39:55;94895.25;;;5.22;100.00
43878;BME280;29815;48.184;11.268;2023-04-25T04:42:32;94881.41;;;5.25;100.00
43878;BME280;29815;48.184;11.268;2023-04-25T04:45:27;94885.91;;;5.19;100.00
43878;BME280;29815;48.184;11.268;2023-04-25T04:48:19;94880.53;;;5.14;100.00
43878;BME280;29815;48.184;11.268;2023-04-25T04:51:21;94879.22;;;5.17;100.00
43878;BME280;29815;48.184;11.268;2023-04-25T04:53:54;94878.97;;;5.18;100.00
43878;BME280;29815;48.184;11.268;2023-04-25T04:56:46;94878.19;;;5.23;100.00
43878;BME280;29815;48.184;11.268;2023-04-25T04:59:28;94886.25;;;5.28;100.00
43878;BME280;29815;48.184;11.268;2023-04-25T05:02:01;94887.34;;;5.32;100.00
43878;BME280;29815;48.184;11.268;2023-04-25T05:04:46;94888.66;;;5.29;100.00
43878;BME280;29815;48.184;11.268;2023-04-25T05:07:34;94888.91;;;5.28;100.00
43878;BME280;29815;48.184;11.268;2023-04-25T05:10:19;94889.91;;;5.22;100.00
43878;BME280;29815;48.184;11.268;2023-04-25T05:13:09;94892.06;;;5.20;100.00
43878;BME280;29815;48.184;11.268;2023-04-25T05:15:50;94889.72;;;5.28;100.00
43878;BME280;29815;48.184;11.268;2023-04-25T05:18:22;94882.53;;;5.29;100.00
43878;BME280;29815;48.184;11.268;2023-04-25T05:21:07;94881.00;;;5.38;100.00
43878;BME280;29815;48.184;11.268;2023-04-25T05:23:55;94890.69;;;5.44;100.00
43878;BME280;29815;48.184;11.268;2023-04-25T05:26:45;94889.69;;;5.55;100.00
43878;BME280;29815;48.184;11.268;2023-04-25T05:29:28;94899.41;;;5.66;100.00
43878;BME280;29815;48.184;11.268;2023-04-25T05:32:06;94905.84;;;5.70;100.00
43878;BME280;29815;48.184;11.268;2023-04-25T05:34:37;94914.72;;;5.81;100.00
43878;BME280;29815;48.184;11.268;2023-04-25T05:37:13;94909.38;;;5.81;100.00
43878;BME280;29815;48.184;11.268;2023-04-25T05:39:53;94917.75;;;5.90;100.00
43878;BME280;29815;48.184;11.268;2023-04-25T05:42:46;94900.13;;;5.89;100.00
43878;BME280;29815;48.184;11.268;2023-04-25T05:45:43;94912.59;;;5.83;100.00
43878;BME280;29815;48.184;11.268;2023-04-25T05:48:40;94913.38;;;5.78;100.00
43878;BME280;29815;48.184;11.268;2023-04-25T05:51:19;94911.25;;;5.81;100.00
43878;BME280;29815;48.184;11.268;2023-04-25T05:54:12;94907.78;;;5.80;100.00
43878;BME280;29815;48.184;11.268;2023-04-25T05:56:42;94902.38;;;5.70;100.00
43878;BME280;29815;48.184;11.268;2023-04-25T05:59:11;94910.84;;;5.62;100.00
43878;BME280;29815;48.184;11.268;2023-04-25T06:01:42;94900.81;;;5.42;100.00
43878;BME280;29815;48.184;11.268;2023-04-25T06:04:12;94897.28;;;5.36;100.00
43878;BME280;29815;48.184;11.268;2023-04-25T06:06:42;94903.88;;;5.29;100.00
43878;BME280;29815;48.184;11.268;2023-04-25T06:09:12;94908.41;;;5.28;100.00
43878;BME280;29815;48.184;11.268;2023-04-25T06:11:41;94903.88;;;5.29;100.00
43878;BME280;29815;48.184;11.268;2023-04-25T06:14:11;94908.16;;;5.30;100.00
43878;BME280;29815;48.184;11.268;2023-04-25T06:16:48;94903.16;;;5.38;100.00
43878;BME280;29815;48.184;11.268;2023-04-25T06:19:18;94901.06;;;5.40;100.00
43878;BME280;29815;48.184;11.268;2023-04-25T06:21:47;94901.69;;;5.53;100.00
43878;BME280;29815;48.184;11.268;2023-04-25T06:24:17;94899.06;;;5.58;100.00
43878;BME280;29815;48.184;11.268;2023-04-25T06:26:46;94899.94;;;5.68;100.00
43878;BME280;29815;48.184;11.268;2023-04-25T06:29:16;94886.38;;;5.75;100.00
43878;BME280;29815;48.184;11.268;2023-04-25T06:31:48;94886.19;;;5.87;100.00
43878;BME280;29815;48.184;11.268;2023-04-25T06:34:18;94886.56;;;5.95;100.00
43878;BME280;29815;48.184;11.268;2023-04-25T06:36:47;94883.66;;;6.02;100.00
43878;BME280;29815;48.184;11.268;2023-04-25T06:39:17;94886.94;;;6.14;100.00
43878;BME280;29815;48.184;11.268;2023-04-25T06:41:49;94880.56;;;6.20;100.00
43878;BME280;29815;48.184;11.268;2023-04-25T06:44:41;94881.66;;;6.29;100.00
43878;BME280;29815;48.184;11.268;2023-04-25T06:47:13;94888.69;;;6.40;100.00
43878;BME280;29815;48.184;11.268;2023-04-25T06:49:43;94889.28;;;6.48;100.00
43878;BME280;29815;48.184;11.268;2023-04-25T06:52:13;94893.84;;;6.52;100.00
43878;BME280;29815;48.184;11.268;2023-04-25T06:54:42;94893.84;;;6.52;100.00
43878;BME280;29815;48.184;11.268;2023-04-25T06:57:28;94892.78;;;6.53;100.00
43878;BME280;29815;48.184;11.268;2023-04-25T07:00:10;94884.75;;;6.58;100.00
43878;BME280;29815;48.184;11.268;2023-04-25T07:02:41;94885.31;;;6.60;100.00
43878;BME280;29815;48.184;11.268;2023-04-25T07:05:11;94886.63;;;6.58;100.00
43878;BME280;29815;48.184;11.268;2023-04-25T07:07:41;94881.28;;;6.58;100.00
43878;BME280;29815;48.184;11.268;2023-04-25T07:10:10;94880.25;;;6.64;100.00
43878;BME280;29815;48.184;11.268;2023-04-25T07:12:40;94879.72;;;6.67;100.00
43878;BME280;29815;48.184;11.268;2023-04-25T07:15:10;94878.94;;;6.71;100.00
43878;BME280;29815;48.184;11.268;2023-04-25T07:17:44;94886.44;;;6.74;100.00
43878;BME280;29815;48.184;11.268;2023-04-25T07:20:14;94885.91;;;6.77;100.00
43878;BME280;29815;48.184;11.268;2023-04-25T07:22:44;94869.91;;;6.83;100.00
43878;BME280;29815;48.184;11.268;2023-04-25T07:25:14;94874.97;;;6.89;100.00
43878;BME280;29815;48.184;11.268;2023-04-25T07:27:43;94878.53;;;7.10;100.00
43878;BME280;29815;48.184;11.268;2023-04-25T07:30:18;94881.25;;;7.35;100.00
43878;BME280;29815;48.184;11.268;2023-04-25T07:32:50;94878.31;;;7.57;100.00
43878;BME280;29815;48.184;11.268;2023-04-25T07:35:19;94879.94;;;7.84;100.00
43878;BME280;29815;48.184;11.268;2023-04-25T07:37:49;94874.00;;;8.12;100.00
43878;BME280;29815;48.184;11.268;2023-04-25T07:40:20;94866.19;;;8.31;100.00
43878;BME280;29815;48.184;11.268;2023-04-25T07:42:54;94868.03;;;8.51;100.00
43878;BME280;29815;48.184;11.268;2023-04-25T07:45:39;94860.50;;;8.53;100.00
43878;BME280;29815;48.184;11.268;2023-04-25T07:48:11;94864.81;;;8.54;100.00
43878;BME280;29815;48.184;11.268;2023-04-25T07:50:41;94862.09;;;8.59;100.00
43878;BME280;29815;48.184;11.268;2023-04-25T07:53:11;94857.56;;;8.54;100.00
43878;BME280;29815;48.184;11.268;2023-04-25T07:55:47;94858.88;;;8.62;100.00
43878;BME280;29815;48.184;11.268;2023-04-25T07:58:18;94855.13;;;8.58;100.00
43878;BME280;29815;48.184;11.268;2023-04-25T08:00:54;94867.22;;;8.55;100.00
43878;BME280;29815;48.184;11.268;2023-04-25T08:03:34;94868.28;;;8.59;100.00
43878;BME280;29815;48.184;11.268;2023-04-25T08:06:08;94865.88;;;8.58;100.00
43878;BME280;29815;48.184;11.268;2023-04-25T08:08:53;94869.63;;;8.57;100.00
43878;BME280;29815;48.184;11.268;2023-04-25T08:11:29;94875.50;;;8.59;100.00
43878;BME280;29815;48.184;11.268;2023-04-25T08:13:58;94869.88;;;8.60;100.00
43878;BME280;29815;48.184;11.268;2023-04-25T08:16:28;94864.44;;;8.75;100.00
43878;BME280;29815;48.184;11.268;2023-04-25T08:19:00;94867.38;;;8.84;100.00
43878;BME280;29815;48.184;11.268;2023-04-25T08:21:30;94867.22;;;9.09;100.00
43878;BME280;29815;48.184;11.268;2023-04-25T08:24:05;94864.50;;;9.20;100.00
43878;BME280;29815;48.184;11.268;2023-04-25T08:26:38;94867.31;;;9.43;100.00
43878;BME280;29815;48.184;11.268;2023-04-25T08:29:10;94870.41;;;9.61;100.00
43878;BME280;29815;48.184;11.268;2023-04-25T08:31:41;94863.63;;;9.68;100.00
43878;BME280;29815;48.184;11.268;2023-04-25T08:34:13;94864.63;;;9.77;100.00
43878;BME280;29815;48.184;11.268;2023-04-25T08:36:46;94860.13;;;10.02;100.00
43878;BME280;29815;48.184;11.268;2023-04-25T08:39:38;94869.09;;;10.21;100.00
43878;BME280;29815;48.184;11.268;2023-04-25T08:42:22;94864.44;;;10.32;100.00
43878;BME280;29815;48.184;11.268;2023-04-25T08:44:53;94866.41;;;10.50;100.00
43878;BME280;29815;48.184;11.268;2023-04-25T08:47:28;94880.69;;;10.69;100.00
43878;BME280;29815;48.184;11.268;2023-04-25T08:50:03;94874.50;;;10.69;100.00
43878;BME280;29815;48.184;11.268;2023-04-25T08:52:40;94875.97;;;10.61;100.00
43878;BME280;29815;48.184;11.268;2023-04-25T08:55:13;94871.25;;;10.72;100.00
43878;BME280;29815;48.184;11.268;2023-04-25T08:57:44;94874.31;;;10.65;100.00
43878;BME280;29815;48.184;11.268;2023-04-25T09:00:14;94877.97;;;10.50;100.00
43878;BME280;29815;48.184;11.268;2023-04-25T09:02:47;94877.22;;;10.69;100.00
43878;BME280;29815;48.184;11.268;2023-04-25T09:05:18;94882.59;;;10.69;100.00
43878;BME280;29815;48.184;11.268;2023-04-25T09:07:52;94873.22;;;10.66;100.00
43878;BME280;29815;48.184;11.268;2023-04-25T09:10:22;94873.94;;;10.72;100.00
43878;BME280;29815;48.184;11.268;2023-04-25T09:13:05;94877.50;;;10.91;100.00
43878;BME280;29815;48.184;11.268;2023-04-25T09:15:57;94872.53;;;10.98;100.00
43878;BME280;29815;48.184;11.268;2023-04-25T09:18:53;94878.81;;;10.94;100.00
43878;BME280;29815;48.184;11.268;2023-04-25T09:21:25;94878.88;;;10.89;100.00
43878;BME280;29815;48.184;11.268;2023-04-25T09:23:54;94880.94;;;10.73;100.00
43878;BME280;29815;48.184;11.268;2023-04-25T09:26:26;94885.88;;;10.66;100.00
43878;BME280;29815;48.184;11.268;2023-04-25T09:29:05;94889.41;;;10.61;100.00
43878;BME280;29815;48.184;11.268;2023-04-25T09:31:39;94894.81;;;10.61;100.00
43878;BME280;29815;48.184;11.268;2023-04-25T09:34:10;94889.75;;;10.55;100.00
43878;BME280;29815;48.184;11.268;2023-04-25T09:36:49;94888.19;;;10.72;100.00
43878;BME280;29815;48.184;11.268;2023-04-25T09:39:49;94885.47;;;11.20;100.00
43878;BME280;29815;48.184;11.268;2023-04-25T09:42:22;94889.50;;;11.41;90.18
43878;BME280;29815;48.184;11.268;2023-04-25T09:44:55;94888.91;;;11.63;93.12
43878;BME280;29815;48.184;11.268;2023-04-25T09:47:26;94885.41;;;11.81;92.96
43878;BME280;29815;48.184;11.268;2023-04-25T09:49:57;94886.50;;;11.62;80.29
43878;BME280;29815;48.184;11.268;2023-04-25T09:52:27;94886.59;;;11.38;79.73
43878;BME280;29815;48.184;11.268;2023-04-25T09:55:09;94888.88;;;11.26;97.33
43878;BME280;29815;48.184;11.268;2023-04-25T09:57:39;94893.06;;;11.18;94.01
43878;BME280;29815;48.184;11.268;2023-04-25T10:00:11;94892.03;;;11.14;95.43
43878;BME280;29815;48.184;11.268;2023-04-25T10:02:43;94898.72;;;11.16;92.76
43878;BME280;29815;48.184;11.268;2023-04-25T10:05:47;94910.63;;;10.92;92.84
43878;BME280;29815;48.184;11.268;2023-04-25T10:08:19;94914.91;;;10.93;100.00
43878;BME280;29815;48.184;11.268;2023-04-25T10:10:50;94917.13;;;10.85;100.00
43878;BME280;29815;48.184;11.268;2023-04-25T10:13:19;94915.38;;;10.47;95.12
43878;BME280;29815;48.184;11.268;2023-04-25T10:15:48;94919.91;;;10.51;100.00
43878;BME280;29815;48.184;11.268;2023-04-25T10:18:19;94922.00;;;10.31;100.00
43878;BME280;29815;48.184;11.268;2023-04-25T10:20:49;94919.97;;;10.12;100.00
43878;BME280;29815;48.184;11.268;2023-04-25T10:23:23;94926.81;;;10.00;100.00
43878;BME280;29815;48.184;11.268;2023-04-25T10:25:54;94950.91;;;9.76;100.00
43878;BME280;29815;48.184;11.268;2023-04-25T10:28:23;94954.41;;;9.27;100.00
43878;BME280;29815;48.184;11.268;2023-04-25T10:30:59;94957.50;;;8.90;100.00
43878;BME280;29815;48.184;11.268;2023-04-25T10:33:33;94962.69;;;8.66;100.00
43878;BME280;29815;48.184;11.268;2023-04-25T10:36:12;94960.84;;;8.46;100.00
43878;BME280;29815;48.184;11.268;2023-04-25T10:38:45;94970.75;;;8.51;100.00
43878;BME280;29815;48.184;11.268;2023-04-25T10:41:15;94975.56;;;8.49;100.00
43878;BME280;29815;48.184;11.268;2023-04-25T10:43:48;94972.13;;;8.33;100.00
43878;BME280;29815;48.184;11.268;2023-04-25T10:46:21;94976.66;;;8.38;100.00
43878;BME280;29815;48.184;11.268;2023-04-25T10:48:55;94976.41;;;8.39;100.00
43878;BME280;29815;48.184;11.268;2023-04-25T10:51:27;94972.38;;;8.37;100.00
43878;BME280;29815;48.184;11.268;2023-04-25T10:54:19;94972.91;;;8.34;100.00
43878;BME280;29815;48.184;11.268;2023-04-25T10:56:53;94970.75;;;8.31;100.00
43878;BME280;29815;48.184;11.268;2023-04-25T10:59:25;94969.69;;;8.37;100.00
43878;BME280;29815;48.184;11.268;2023-04-25T11:01:56;94972.88;;;8.54;100.00
43878;BME280;29815;48.184;11.268;2023-04-25T11:04:30;94973.41;;;8.66;100.00
43878;BME280;29815;48.184;11.268;2023-04-25T11:07:10;94967.72;;;8.83;100.00
43878;BME280;29815;48.184;11.268;2023-04-25T11:09:45;94979.22;;;8.99;100.00
43878;BME280;29815;48.184;11.268;2023-04-25T11:12:15;94981.81;;;9.24;100.00
43878;BME280;29815;48.184;11.268;2023-04-25T11:14:45;94984.69;;;9.43;100.00
43878;BME280;29815;48.184;11.268;2023-04-25T11:17:15;94985.38;;;9.59;100.00
43878;BME280;29815;48.184;11.268;2023-04-25T11:19:48;94976.06;;;9.51;100.00
43878;BME280;29815;48.184;11.268;2023-04-25T11:22:18;94984.63;;;9.53;100.00
43878;BME280;29815;48.184;11.268;2023-04-25T11:24:49;94990.31;;;9.46;100.00
43878;BME280;29815;48.184;11.268;2023-04-25T11:27:19;95015.91;;;9.29;100.00
43878;BME280;29815;48.184;11.268;2023-04-25T11:29:50;95001.50;;;8.94;100.00
43878;BME280;29815;48.184;11.268;2023-04-25T11:32:20;95027.28;;;8.85;100.00
43878;BME280;29815;48.184;11.268;2023-04-25T11:34:52;95021.47;;;8.47;100.00
43878;BME280;29815;48.184;11.268;2023-04-25T11:37:22;95030.84;;;8.40;100.00
43878;BME280;29815;48.184;11.268;2023-04-25T11:39:53;95041.78;;;8.18;100.00
43878;BME280;29815;48.184;11.268;2023-04-25T11:42:22;95039.34;;;8.01;100.00
43878;BME280;29815;48.184;11.268;2023-04-25T11:44:52;95043.63;;;7.92;100.00
43878;BME280;29815;48.184;11.268;2023-04-25T11:47:29;95039.84;;;7.78;100.00
43878;BME280;29815;48.184;11.268;2023-04-25T11:49:59;95045.41;;;7.56;100.00
43878;BME280;29815;48.184;11.268;2023-04-25T11:52:37;95043.75;;;7.45;100.00
43878;BME280;29815;48.184;11.268;2023-04-25T11:55:12;95044.25;;;7.32;100.00
43878;BME280;29815;48.184;11.268;2023-04-25T11:57:45;95046.06;;;7.21;100.00
43878;BME280;29815;48.184;11.268;2023-04-25T12:00:19;95040.72;;;7.21;100.00
43878;BME280;29815;48.184;11.268;2023-04-25T12:02:51;95046.38;;;7.25;100.00
43878;BME280;29815;48.184;11.268;2023-04-25T12:05:26;95043.13;;;7.18;100.00
43878;BME280;29815;48.184;11.268;2023-04-25T12:08:10;95048.91;;;6.99;100.00
43878;BME280;29815;48.184;11.268;2023-04-25T12:10:45;95053.47;;;6.99;100.00
43878;BME280;29815;48.184;11.268;2023-04-25T12:13:24;95049.13;;;6.93;100.00
43878;BME280;29815;48.184;11.268;2023-04-25T12:15:56;95053.03;;;6.70;100.00
43878;BME280;29815;48.184;11.268;2023-04-25T12:18:26;95045.72;;;6.60;100.00
43878;BME280;29815;48.184;11.268;2023-04-25T12:20:56;95054.81;;;6.59;100.00
43878;BME280;29815;48.184;11.268;2023-04-25T12:23:28;95049.16;;;6.51;100.00
43878;BME280;29815;48.184;11.268;2023-04-25T12:26:00;95052.19;;;6.32;100.00
43878;BME280;29815;48.184;11.268;2023-04-25T12:28:32;95047.91;;;6.31;100.00
43878;BME280;29815;48.184;11.268;2023-04-25T12:31:04;95047.09;;;6.26;100.00
43878;BME280;29815;48.184;11.268;2023-04-25T12:33:36;95050.41;;;6.11;100.00
43878;BME280;29815;48.184;11.268;2023-04-25T12:36:06;95059.34;;;6.22;100.00
43878;BME280;29815;48.184;11.268;2023-04-25T12:38:40;95057.59;;;6.37;100.00
43878;BME280;29815;48.184;11.268;2023-04-25T12:41:12;95062.88;;;6.32;100.00
43878;BME280;29815;48.184;11.268;2023-04-25T12:43:41;95060.31;;;6.42;100.00
43878;BME280;29815;48.184;11.268;2023-04-25T12:46:11;95070.78;;;6.49;100.00
43878;BME280;29815;48.184;11.268;2023-04-25T12:48:40;95069.28;;;6.63;100.00
43878;BME280;29815;48.184;11.268;2023-04-25T12:51:11;95072.84;;;6.74;100.00
43878;BME280;29815;48.184;11.268;2023-04-25T12:53:41;95059.22;;;6.75;100.00
43878;BME280;29815;48.184;11.268;2023-04-25T12:56:12;95068.13;;;6.91;100.00
43878;BME280;29815;48.184;11.268;2023-04-25T12:58:41;95064.13;;;6.94;100.00
43878;BME280;29815;48.184;11.268;2023-04-25T13:01:12;95067.06;;;6.92;100.00
43878;BME280;29815;48.184;11.268;2023-04-25T13:03:42;95086.00;;;6.81;100.00
43878;BME280;29815;48.184;11.268;2023-04-25T13:06:11;95084.59;;;6.73;100.00
43878;BME280;29815;48.184;11.268;2023-04-25T13:08:41;95087.81;;;6.75;100.00
43878;BME280;29815;48.184;11.268;2023-04-25T13:11:12;95092.16;;;6.49;100.00
43878;BME280;29815;48.184;11.268;2023-04-25T13:13:43;95094.81;;;6.44;100.00
43878;BME280;29815;48.184;11.268;2023-04-25T13:16:13;95101.63;;;6.30;100.00
43878;BME280;29815;48.184;11.268;2023-04-25T13:18:43;95104.09;;;6.36;100.00
43878;BME280;29815;48.184;11.268;2023-04-25T13:21:12;95108.16;;;6.44;100.00